Time;durP1;ratioP1;P1;durP2;ratioP2;P2;SDS_P1;SDS_P2;PMS_P1;PMS_P2;Temp;Humidity;BMP_temperature;BMP_pressure;BME280_temperature;BME280_humidity;BME280_pressure;Samples;Min_cycle;Max_cycle;Signal;HPM_P1;HPM_P2
2022/04/16 00:00:27;;;;;;;17.80;16.00;;;;;;;-148.33;100.00;56587.81;5028157;28;20034;-52
2022/04/16 00:02:54;;;;;;;17.05;15.55;;;;;;;-148.33;100.00;56587.81;5029093;28;20680;-52
2022/04/16 00:05:20;;;;;;;17.30;15.70;;;;;;;-148.33;100.00;56587.81;5028261;28;20385;-54
2022/04/16 00:08:06;;;;;;;17.77;15.93;;;;;;;-148.33;100.00;56587.81;5028655;28;20021;-52
2022/04/16 00:10:32;;;;;;;16.80;15.20;;;;;;;-148.33;100.00;56587.81;5028184;28;20098;-54
2022/04/16 00:12:57;;;;;;;16.67;15.18;;;;;;;-148.33;100.00;56587.81;5027805;28;20025;-55
2022/04/16 00:15:22;;;;;;;16.35;14.75;;;;;;;-148.33;100.00;56587.81;5028406;28;20033;-54
2022/04/16 00:17:49;;;;;;;16.55;14.88;;;;;;;-148.33;100.00;56587.81;5028534;28;20045;-54
2022/04/16 00:20:15;;;;;;;15.85;14.43;;;;;;;-148.33;100.00;56587.81;5028552;28;20396;-53
2022/04/16 00:22:40;;;;;;;14.75;13.32;;;;;;;-148.33;100.00;56587.81;5028284;28;20033;-54
2022/04/16 00:25:07;;;;;;;16.98;15.25;;;;;;;-148.33;100.00;56587.81;5027822;28;20026;-56
2022/04/16 00:27:34;;;;;;;15.73;14.10;;;;;;;-148.33;100.00;56587.81;5028275;28;20028;-55
2022/04/16 00:29:59;;;;;;;16.60;15.20;;;;;;;-148.33;100.00;56587.81;5028018;28;20026;-55
2022/04/16 00:32:25;;;;;;;16.02;14.60;;;;;;;-148.33;100.00;56587.81;5027854;28;20404;-54
2022/04/16 00:34:50;;;;;;;16.25;14.68;;;;;;;-148.33;100.00;56587.81;5028362;28;20071;-54
2022/04/16 00:37:15;;;;;;;16.17;14.57;;;;;;;-148.33;100.00;56587.81;5027854;28;20024;-54
2022/04/16 00:39:41;;;;;;;15.82;14.32;;;;;;;-148.33;100.00;56587.81;5028159;28;20121;-54
2022/04/16 00:42:06;;;;;;;15.80;14.20;;;;;;;-148.33;100.00;56587.81;5028426;28;20017;-51
2022/04/16 00:44:31;;;;;;;16.65;15.05;;;;;;;-148.33;100.00;56587.81;5028237;28;20026;-56
2022/04/16 00:46:57;;;;;;;15.13;13.63;;;;;;;-148.33;100.00;56587.81;5028000;28;20779;-52
2022/04/16 00:49:22;;;;;;;16.63;15.07;;;;;;;-148.33;100.00;56587.81;5028442;28;20033;-56
2022/04/16 00:51:48;;;;;;;17.33;15.63;;;;;;;-148.33;100.00;56587.81;5028022;28;20079;-56
2022/04/16 00:54:13;;;;;;;15.77;14.32;;;;;;;-148.33;100.00;56587.81;5028376;28;20048;-56
2022/04/16 00:56:39;;;;;;;16.90;15.13;;;;;;;-148.33;100.00;56587.81;5028696;28;20025;-56
2022/04/16 00:59:05;;;;;;;15.82;14.48;;;;;;;-148.33;100.00;56587.81;5028288;28;20489;-54
2022/04/16 01:01:31;;;;;;;17.95;16.17;;;;;;;-148.33;100.00;56587.81;5028696;28;20032;-55
2022/04/16 01:03:57;;;;;;;16.63;15.02;;;;;;;-148.33;100.00;56587.81;5028288;28;20049;-55
2022/04/16 01:06:22;;;;;;;17.63;15.93;;;;;;;-148.33;100.00;56587.81;5028447;28;20057;-56
2022/04/16 01:08:48;;;;;;;18.08;16.27;;;;;;;-148.33;100.00;56587.81;5028536;28;20030;-55
2022/04/16 01:11:14;;;;;;;18.70;16.70;;;;;;;-148.33;100.00;56587.81;5028563;28;20055;-53
2022/04/16 01:13:40;;;;;;;17.83;16.05;;;;;;;-148.33;100.00;56587.81;5028885;28;20025;-56
2022/04/16 01:16:06;;;;;;;17.13;15.55;;;;;;;-148.33;100.00;56587.81;5028137;28;20393;-55
2022/04/16 01:18:32;;;;;;;18.35;16.50;;;;;;;-148.33;100.00;56587.81;5028427;28;20022;-53
2022/04/16 01:20:58;;;;;;;17.98;16.20;;;;;;;-148.33;100.00;56587.81;5028113;28;20397;-55
2022/04/16 01:23:23;;;;;;;19.17;17.30;;;;;;;-148.33;100.00;56587.81;5028480;28;20025;-56
2022/04/16 01:25:48;;;;;;;19.63;17.70;;;;;;;-148.33;100.00;56587.81;5031982;28;20056;-54
2022/04/16 01:28:14;;;;;;;20.13;18.30;;;;;;;-148.33;100.00;56587.81;5031394;28;20033;-56
2022/04/16 01:30:39;;;;;;;20.17;18.23;;;;;;;-148.33;100.00;56587.81;5031618;28;20574;-54
2022/04/16 01:33:05;;;;;;;20.35;18.20;;;;;;;-148.33;100.00;56587.81;5031526;28;20045;-54
2022/04/16 01:35:31;;;;;;;19.38;17.52;;;;;;;-148.33;100.00;56587.81;5031610;28;20470;-54
2022/04/16 01:37:57;;;;;;;20.92;19.00;;;;;;;-148.33;100.00;56587.81;5031452;28;20144;-54
2022/04/16 01:40:25;;;;;;;22.10;19.85;;;;;;;-148.33;100.00;56587.81;5031191;28;20022;-54
2022/04/16 01:42:55;;;;;;;20.58;18.50;;;;;;;-148.33;100.00;56587.81;5031792;28;20482;-54
2022/04/16 01:45:21;;;;;;;19.33;17.58;;;;;;;-148.33;100.00;56587.81;5032016;28;20084;-56
2022/04/16 01:47:46;;;;;;;20.13;18.15;;;;;;;-148.33;100.00;56587.81;5030844;28;20041;-55
2022/04/16 01:50:12;;;;;;;21.25;19.20;;;;;;;-148.33;100.00;56587.81;5046434;28;20404;-55
2022/04/16 01:52:38;;;;;;;20.90;18.92;;;;;;;-148.33;100.00;56587.81;5050999;28;20388;-57
2022/04/16 01:55:05;;;;;;;20.27;18.38;;;;;;;-148.33;100.00;56587.81;5051698;28;20025;-55
2022/04/16 01:57:30;;;;;;;21.88;19.58;;;;;;;-148.33;100.00;56587.81;5050484;28;20082;-56
2022/04/16 01:59:56;;;;;;;20.67;18.77;;;;;;;-148.33;100.00;56587.81;5051125;28;20036;-53
2022/04/16 02:02:21;;;;;;;20.70;18.77;;;;;;;-148.33;100.00;56587.81;5051230;28;20021;-55
2022/04/16 02:04:46;;;;;;;20.75;18.75;;;;;;;-148.33;100.00;56587.81;5050901;28;20610;-56
2022/04/16 02:07:12;;;;;;;21.50;18.98;;;;;;;-148.33;100.00;56587.81;5051145;28;20029;-55
2022/04/16 02:09:37;;;;;;;20.90;18.80;;;;;;;-148.33;100.00;56587.81;5050836;28;20020;-56
2022/04/16 02:12:03;;;;;;;21.25;18.13;;;;;;;-148.33;100.00;56587.81;5050907;28;20021;-54
2022/04/16 02:14:28;;;;;;;21.83;19.52;;;;;;;-148.33;100.00;56587.81;5051287;28;20081;-56
2022/04/16 02:16:54;;;;;;;21.05;19.08;;;;;;;-148.33;100.00;56587.81;5050398;28;20072;-55
2022/04/16 02:19:19;;;;;;;21.13;19.13;;;;;;;-148.33;100.00;56587.81;5050641;28;20567;-57
2022/04/16 02:21:46;;;;;;;20.65;18.65;;;;;;;-148.33;100.00;56587.81;5050527;28;20024;-56
2022/04/16 02:24:13;;;;;;;20.80;18.85;;;;;;;-148.33;100.00;56587.81;5051036;28;20489;-57
2022/04/16 02:26:39;;;;;;;21.35;19.35;;;;;;;-148.33;100.00;56587.81;5050267;28;20021;-54
2022/04/16 02:29:04;;;;;;;21.52;19.42;;;;;;;-148.33;100.00;56587.81;5050567;28;20021;-54
2022/04/16 02:31:29;;;;;;;20.35;18.40;;;;;;;-148.33;100.00;56587.81;5050460;28;20025;-54
2022/04/16 02:33:55;;;;;;;21.92;19.73;;;;;;;-148.33;100.00;56587.81;5050629;28;20040;-55
2022/04/16 02:36:23;;;;;;;21.73;19.50;;;;;;;-148.33;100.00;56587.81;5048735;28;20036;-51
2022/04/16 02:38:49;;;;;;;22.67;20.33;;;;;;;-148.33;100.00;56587.81;5050271;28;20145;-56
2022/04/16 02:41:14;;;;;;;23.05;20.65;;;;;;;-148.33;100.00;56587.81;5050559;28;20186;-53
2022/04/16 02:43:39;;;;;;;21.95;19.75;;;;;;;-148.33;100.00;56587.81;5050455;28;20051;-56
2022/04/16 02:48:48;;;;;;;21.92;19.88;;;;;;;-148.33;100.00;56587.81;5049985;28;20090;-55
2022/04/16 02:51:14;;;;;;;22.65;20.33;;;;;;;-148.33;100.00;56587.81;5050515;28;20112;-55
2022/04/16 02:53:39;;;;;;;22.23;20.08;;;;;;;-148.33;100.00;56587.81;5050163;28;20097;-55
2022/04/16 02:56:04;;;;;;;22.98;20.75;;;;;;;-148.33;100.00;56587.81;5050140;28;20024;-53
2022/04/16 02:58:29;;;;;;;22.23;20.02;;;;;;;-148.33;100.00;56587.81;5050246;28;20093;-53
2022/04/16 03:00:55;;;;;;;23.27;20.80;;;;;;;-148.33;100.00;56587.81;5049843;28;20104;-54
2022/04/16 03:03:22;;;;;;;23.13;21.00;;;;;;;-148.33;100.00;56587.81;5049746;28;20029;-55
2022/04/16 03:05:47;;;;;;;23.08;20.90;;;;;;;-148.33;100.00;56587.81;5049726;28;20067;-53
2022/04/16 03:08:13;;;;;;;23.20;21.17;;;;;;;-148.33;100.00;56587.81;5050263;28;20126;-53
2022/04/16 03:10:39;;;;;;;23.83;21.42;;;;;;;-148.33;100.00;56587.81;5049954;28;20573;-54
2022/04/16 03:13:04;;;;;;;23.75;21.50;;;;;;;-148.33;100.00;56587.81;5049546;28;20017;-56
2022/04/16 03:18:13;;;;;;;23.40;20.87;;;;;;;-148.33;100.00;56587.81;5049776;28;20048;-55
2022/04/16 03:20:40;;;;;;;21.37;19.43;;;;;;;-148.33;100.00;56587.81;5049699;28;20037;-52
2022/04/16 03:23:06;;;;;;;25.08;22.48;;;;;;;-148.33;100.00;56587.81;5049395;28;20024;-53
2022/04/16 03:25:31;;;;;;;23.63;21.42;;;;;;;-148.33;100.00;56587.81;5049352;28;20455;-54
2022/04/16 03:27:57;;;;;;;23.50;21.10;;;;;;;-148.33;100.00;56587.81;5049245;28;20029;-54
2022/04/16 03:30:23;;;;;;;25.53;23.00;;;;;;;-148.33;100.00;56587.81;5049301;28;20036;-53
2022/04/16 03:32:49;;;;;;;25.40;22.63;;;;;;;-148.33;100.00;56587.81;5048804;28;20049;-53
2022/04/16 03:35:18;;;;;;;23.73;21.50;;;;;;;-148.33;100.00;56587.81;5049765;28;20033;-54
2022/04/16 03:37:44;;;;;;;24.50;21.92;;;;;;;-148.33;100.00;56587.81;5049343;28;20077;-54
2022/04/16 03:40:09;;;;;;;25.45;22.80;;;;;;;-148.33;100.00;56587.81;5049451;28;20029;-54
2022/04/16 03:42:44;;;;;;;25.53;23.03;;;;;;;-148.33;100.00;56587.81;5049415;28;20035;-53
2022/04/16 03:45:20;;;;;;;26.35;23.65;;;;;;;-148.33;100.00;56587.81;5049237;28;20029;-50
2022/04/16 03:47:46;;;;;;;26.40;23.80;;;;;;;-148.33;100.00;56587.81;5048480;28;20413;-55
2022/04/16 03:50:12;;;;;;;25.27;22.97;;;;;;;-148.33;100.00;56587.81;5049560;28;20147;-56
2022/04/16 03:52:45;;;;;;;26.43;23.77;;;;;;;-148.33;100.00;56587.81;5049035;28;20389;-54
2022/04/16 04:00:49;;;;;;;24.85;22.45;;;;;;;-148.33;100.00;56587.81;5049114;28;20373;-54
2022/04/16 04:03:15;;;;;;;25.17;22.55;;;;;;;-148.33;100.00;56587.81;5048999;28;20028;-56
2022/04/16 04:05:42;;;;;;;24.88;22.48;;;;;;;-148.33;100.00;56587.81;5049007;28;20116;-55
2022/04/16 04:08:09;;;;;;;26.37;23.77;;;;;;;-148.33;100.00;56587.81;5048982;28;20524;-55
2022/04/16 04:10:35;;;;;;;24.87;22.37;;;;;;;-148.33;100.00;56587.81;5048584;28;20473;-55
2022/04/16 04:13:01;;;;;;;26.05;23.40;;;;;;;-148.33;100.00;56587.81;5048722;28;20112;-57
2022/04/16 04:15:27;;;;;;;26.23;23.45;;;;;;;-148.33;100.00;56587.81;5048750;28;20550;-58
2022/04/16 04:17:53;;;;;;;26.10;23.60;;;;;;;-148.33;100.00;56587.81;5048628;28;20476;-59
2022/04/16 04:20:18;;;;;;;25.00;22.67;;;;;;;-148.33;100.00;56587.81;5049095;28;20021;-55
2022/04/16 04:22:43;;;;;;;26.98;24.13;;;;;;;-148.33;100.00;56587.81;5048799;28;20574;-56
2022/04/16 04:25:09;;;;;;;27.83;24.90;;;;;;;-148.33;100.00;56587.81;5047090;28;20537;-54
2022/04/16 04:27:34;;;;;;;27.40;24.53;;;;;;;-148.33;100.00;56587.81;5047317;28;20027;-52
2022/04/16 04:30:01;;;;;;;26.87;24.33;;;;;;;-148.33;100.00;56587.81;5046585;28;20047;-54
2022/04/16 04:32:27;;;;;;;30.05;24.42;;;;;;;-148.33;100.00;56587.81;5046928;28;20041;-52
2022/04/16 04:34:52;;;;;;;27.15;24.48;;;;;;;-148.33;100.00;56587.81;5045933;28;20056;-50
2022/04/16 04:37:18;;;;;;;27.50;24.77;;;;;;;-148.33;100.00;56587.81;5048207;28;20563;-56
2022/04/16 04:39:43;;;;;;;27.97;25.27;;;;;;;-148.33;100.00;56587.81;5048159;28;20025;-56
2022/04/16 04:42:08;;;;;;;27.87;25.20;;;;;;;-148.33;100.00;56587.81;5048310;28;20020;-55
2022/04/16 04:44:34;;;;;;;29.53;25.73;;;;;;;-148.33;100.00;56587.81;5048250;28;20040;-54
2022/04/16 04:46:59;;;;;;;27.70;25.03;;;;;;;-148.33;100.00;56587.81;5048177;28;20017;-56
2022/04/16 04:49:24;;;;;;;27.53;24.73;;;;;;;-148.33;100.00;56587.81;5048526;28;20122;-55
2022/04/16 04:51:49;;;;;;;28.13;25.33;;;;;;;-148.33;100.00;56587.81;5048399;28;20028;-54
2022/04/16 04:54:15;;;;;;;27.33;24.63;;;;;;;-148.33;100.00;56587.81;5048219;28;20035;-54
2022/04/16 04:56:40;;;;;;;29.07;26.13;;;;;;;-148.33;100.00;56587.81;5048294;28;20569;-54
2022/04/16 04:59:06;;;;;;;30.17;26.97;;;;;;;-148.33;100.00;56587.81;5049402;28;20028;-53
2022/04/16 05:01:31;;;;;;;28.30;25.37;;;;;;;-148.33;100.00;56587.81;5052089;28;20063;-51
2022/04/16 05:03:56;;;;;;;28.97;25.97;;;;;;;-148.33;100.00;56587.81;5047167;28;20025;-54
2022/04/16 05:06:21;;;;;;;29.30;26.35;;;;;;;-148.33;100.00;56587.81;5035789;28;20045;-52
2022/04/16 05:08:47;;;;;;;30.63;27.73;;;;;;;-148.33;100.00;56587.81;5033807;28;20037;-52
2022/04/16 05:11:12;;;;;;;28.83;25.75;;;;;;;-148.33;100.00;56587.81;5034380;28;20033;-56
2022/04/16 05:13:38;;;;;;;30.52;27.48;;;;;;;-148.33;100.00;56587.81;5030822;28;20022;-55
2022/04/16 05:16:04;;;;;;;29.53;26.53;;;;;;;-148.33;100.00;56587.81;5030072;28;20237;-56
2022/04/16 05:18:29;;;;;;;29.65;26.75;;;;;;;-148.33;100.00;56587.81;5031075;28;20375;-53
2022/04/16 05:20:55;;;;;;;31.53;27.97;;;;;;;-148.33;100.00;56587.81;5035647;28;20037;-55
2022/04/16 05:23:20;;;;;;;29.85;26.85;;;;;;;-148.33;100.00;56587.81;5049791;28;20020;-53
2022/04/16 05:25:45;;;;;;;31.05;27.67;;;;;;;-148.33;100.00;56587.81;5031946;28;20513;-55
2022/04/16 05:28:11;;;;;;;30.13;26.95;;;;;;;-148.33;100.00;56587.81;5031343;28;20071;-53
2022/04/16 05:30:44;;;;;;;30.30;27.23;;;;;;;-148.33;100.00;56587.81;5033635;28;20025;-54
2022/04/16 05:34:18;;;;;;;32.17;28.93;;;;;;;-148.33;100.00;56587.81;5030459;28;20049;-56
2022/04/16 05:36:03;;;;;;;31.67;28.52;;;;;;;-148.33;100.00;56587.81;5030583;28;20171;-54
2022/04/16 05:38:28;;;;;;;32.03;28.67;;;;;;;-148.33;100.00;56587.81;5029862;28;20032;-56
2022/04/16 05:40:53;;;;;;;32.45;29.00;;;;;;;-148.33;100.00;56587.81;5041523;28;20029;-52
2022/04/16 05:43:19;;;;;;;33.03;29.73;;;;;;;-148.33;100.00;56587.81;5050894;28;20352;-54
2022/04/16 05:45:44;;;;;;;30.48;27.48;;;;;;;-148.33;100.00;56587.81;5050529;28;20025;-55
2022/04/16 05:48:10;;;;;;;31.77;28.60;;;;;;;-148.33;100.00;56587.81;5050892;28;20136;-57
2022/04/16 05:50:35;;;;;;;31.58;28.38;;;;;;;-148.33;100.00;56587.81;5050414;28;20074;-56
2022/04/16 05:53:00;;;;;;;32.97;29.63;;;;;;;-148.33;100.00;56587.81;5050550;28;20040;-55
2022/04/16 05:55:26;;;;;;;33.80;30.27;;;;;;;-148.33;100.00;56587.81;5033339;28;20055;-53
2022/04/16 05:57:51;;;;;;;34.13;30.73;;;;;;;-148.33;100.00;56587.81;5029517;28;20420;-51
2022/04/16 06:00:16;;;;;;;33.70;30.15;;;;;;;-148.33;100.00;56587.81;5032985;28;20017;-54
2022/04/16 06:02:42;;;;;;;33.10;29.75;;;;;;;-148.33;100.00;56587.81;5035859;28;20087;-54
2022/04/16 06:05:08;;;;;;;34.08;30.42;;;;;;;-148.33;100.00;56587.81;5032380;28;20381;-54
2022/04/16 06:07:33;;;;;;;36.33;32.53;;;;;;;-148.33;100.00;56587.81;5029303;28;20018;-56
2022/04/16 06:09:58;;;;;;;35.88;32.05;;;;;;;-148.33;100.00;56587.81;5032140;28;20509;-56
2022/04/16 06:12:26;;;;;;;35.08;31.48;;;;;;;-148.33;100.00;56587.81;5046207;28;20029;-55
2022/04/16 06:14:52;;;;;;;35.17;31.67;;;;;;;-148.33;100.00;56587.81;5043163;28;20099;-50
2022/04/16 06:17:17;;;;;;;36.33;32.72;;;;;;;-148.33;100.00;56587.81;5039829;28;20035;-54
2022/04/16 06:19:43;;;;;;;36.08;32.45;;;;;;;-148.33;100.00;56587.81;5040718;28;20045;-54
2022/04/16 06:22:10;;;;;;;36.60;32.50;;;;;;;-148.33;100.00;56587.81;5048428;28;20305;-54
2022/04/16 06:24:39;;;;;;;36.75;32.97;;;;;;;-148.33;100.00;56587.81;5047569;28;20021;-56
2022/04/16 06:27:05;;;;;;;36.38;32.72;;;;;;;-148.33;100.00;56587.81;5047770;28;20021;-55
2022/04/16 06:29:30;;;;;;;34.83;31.42;;;;;;;-148.33;100.00;56587.81;5048421;28;20020;-56
2022/04/16 06:31:55;;;;;;;33.75;30.17;;;;;;;-148.33;100.00;56587.81;5045010;28;20041;-52
2022/04/16 06:34:23;;;;;;;32.50;29.13;;;;;;;-148.33;100.00;56587.81;5026954;28;20383;-50
2022/04/16 06:36:49;;;;;;;32.08;28.77;;;;;;;-148.33;100.00;56587.81;5038742;28;20027;-54
2022/04/16 06:39:14;;;;;;;32.45;29.15;;;;;;;-148.33;100.00;56587.81;5030992;28;20033;-53
2022/04/16 06:41:39;;;;;;;32.58;29.30;;;;;;;-148.33;100.00;56587.81;5044548;28;20040;-52
2022/04/16 06:44:04;;;;;;;32.97;29.50;;;;;;;-148.33;100.00;56587.81;5045559;28;20055;-51
2022/04/16 06:46:30;;;;;;;32.58;29.23;;;;;;;-148.33;100.00;56587.81;5037046;28;20037;-55
2022/04/16 06:48:55;;;;;;;33.90;30.58;;;;;;;-148.33;100.00;56587.81;5028536;28;20297;-54
2022/04/16 06:51:20;;;;;;;32.60;29.10;;;;;;;-148.33;100.00;56587.81;5031756;28;20378;-56
2022/04/16 06:53:45;;;;;;;32.83;29.55;;;;;;;-148.33;100.00;56587.81;5041672;28;20028;-55
2022/04/16 06:56:11;;;;;;;32.72;29.55;;;;;;;-148.33;100.00;56587.81;5047853;28;20017;-54
2022/04/16 06:58:36;;;;;;;32.80;29.63;;;;;;;-148.33;100.00;56587.81;5044454;28;20513;-55
2022/04/16 07:01:01;;;;;;;30.25;27.23;;;;;;;-148.33;100.00;56587.81;5046760;28;20029;-55
2022/04/16 07:03:26;;;;;;;31.35;27.17;;;;;;;-148.33;100.00;56587.81;5045833;28;20054;-55
2022/04/16 07:05:52;;;;;;;30.25;27.13;;;;;;;-148.33;100.00;56587.81;5047493;28;20090;-52
2022/04/16 07:08:17;;;;;;;29.27;26.42;;;;;;;-148.33;100.00;56587.81;5041700;28;20073;-54
2022/04/16 07:10:43;;;;;;;29.45;26.55;;;;;;;-148.33;100.00;56587.81;5036508;28;20072;-56
2022/04/16 07:13:08;;;;;;;28.33;25.42;;;;;;;-148.33;100.00;56587.81;5028968;28;20032;-55
2022/04/16 07:15:34;;;;;;;27.92;25.15;;;;;;;-148.33;100.00;56587.81;5032717;28;20086;-53
2022/04/16 07:18:00;;;;;;;26.38;23.85;;;;;;;-148.33;100.00;56587.81;5028055;28;20469;-54
2022/04/16 07:20:26;;;;;;;26.20;23.50;;;;;;;-148.33;100.00;56587.81;5026349;28;20179;-54
2022/04/16 07:22:51;;;;;;;26.65;23.92;;;;;;;-148.33;100.00;56587.81;5027083;28;20567;-55
2022/04/16 07:25:16;;;;;;;26.42;23.90;;;;;;;-148.33;100.00;56587.81;5038514;28;20033;-55
2022/04/16 07:27:43;;;;;;;26.90;24.20;;;;;;;-148.33;100.00;56587.81;5034890;28;20082;-54
2022/04/16 07:30:09;;;;;;;26.23;23.55;;;;;;;-148.33;100.00;56587.81;5028163;28;20022;-54
2022/04/16 07:32:34;;;;;;;26.25;23.75;;;;;;;-148.33;100.00;56587.81;5028592;28;20067;-56
2022/04/16 07:35:00;;;;;;;26.25;23.48;;;;;;;-148.33;100.00;56587.81;5028079;28;20041;-53
2022/04/16 07:37:25;;;;;;;26.10;23.60;;;;;;;-148.33;100.00;56587.81;5027214;28;20583;-55
2022/04/16 07:39:50;;;;;;;24.77;22.30;;;;;;;-148.33;100.00;56587.81;5035231;28;20114;-57
2022/04/16 07:42:16;;;;;;;24.30;21.98;;;;;;;-148.33;100.00;56587.81;5031983;28;20218;-57
2022/04/16 07:44:41;;;;;;;24.42;22.02;;;;;;;-148.33;100.00;56587.81;5041158;28;20025;-56
2022/04/16 07:47:06;;;;;;;23.50;21.30;;;;;;;-148.33;100.00;56587.81;5037935;28;20549;-53
2022/04/16 07:49:31;;;;;;;24.50;22.20;;;;;;;-148.33;100.00;56587.81;5039628;28;20028;-56
2022/04/16 07:51:57;;;;;;;22.80;20.80;;;;;;;-148.33;100.00;56587.81;5031559;28;20029;-56
2022/04/16 07:54:22;;;;;;;22.88;20.83;;;;;;;-148.33;100.00;56587.81;5048301;28;20121;-54
2022/04/16 07:56:47;;;;;;;23.00;20.80;;;;;;;-148.33;100.00;56587.81;5033284;28;20374;-55
2022/04/16 07:59:13;;;;;;;23.67;21.35;;;;;;;-148.33;100.00;56587.81;5031118;28;20029;-56
2022/04/16 08:01:39;;;;;;;23.77;21.55;;;;;;;-148.33;100.00;56587.81;5048163;28;20033;-55
2022/04/16 08:04:04;;;;;;;24.05;21.70;;;;;;;-148.33;100.00;56587.81;5047628;28;20021;-55
2022/04/16 08:06:30;;;;;;;22.23;20.13;;;;;;;-148.33;100.00;56587.81;5035714;28;20146;-56
2022/04/16 08:09:00;;;;;;;21.20;19.10;;;;;;;-148.33;100.00;56587.81;5044479;28;20484;-56
2022/04/16 08:11:28;;;;;;;21.30;19.15;;;;;;;-148.33;100.00;56587.81;5041831;28;20476;-56
2022/04/16 08:13:53;;;;;;;21.75;19.65;;;;;;;-148.33;100.00;56587.81;5047540;28;20013;-56
2022/04/16 08:16:19;;;;;;;19.92;18.20;;;;;;;-148.33;100.00;56587.81;5037148;28;20687;-56
2022/04/16 08:18:44;;;;;;;20.98;19.08;;;;;;;-148.33;100.00;56587.81;5032555;28;20167;-56
2022/04/16 08:21:09;;;;;;;20.50;18.60;;;;;;;-148.33;100.00;56587.81;5038216;28;20025;-58
2022/04/16 08:23:40;;;;;;;19.05;17.25;;;;;;;-148.33;100.00;56587.81;5038995;28;20538;-55
2022/04/16 08:26:05;;;;;;;20.63;18.70;;;;;;;-148.33;100.00;56587.81;5030625;28;20321;-56
2022/04/16 08:28:31;;;;;;;19.33;17.52;;;;;;;-148.33;100.00;56587.81;5025174;28;20025;-57
2022/04/16 08:30:57;;;;;;;20.05;18.13;;;;;;;-148.33;100.00;56587.81;5032558;28;20087;-55
2022/04/16 08:33:22;;;;;;;19.75;18.02;;;;;;;-148.33;100.00;56587.81;5034369;28;20492;-56
2022/04/16 08:35:47;;;;;;;33.55;18.52;;;;;;;-148.33;100.00;56587.81;5031451;28;20570;-56
2022/04/16 08:38:13;;;;;;;18.10;16.40;;;;;;;-148.33;100.00;56587.81;5042856;28;20025;-56
2022/04/16 08:40:39;;;;;;;18.88;17.13;;;;;;;-148.33;100.00;56587.81;5052238;28;20370;-56
2022/04/16 08:43:06;;;;;;;63.00;19.70;;;;;;;-148.33;100.00;56587.81;5048439;28;20464;-55
2022/04/16 08:45:35;;;;;;;19.10;17.02;;;;;;;-148.33;100.00;56587.81;5045486;28;20476;-56
2022/04/16 08:48:01;;;;;;;28.58;17.92;;;;;;;-148.33;100.00;56587.81;5034371;28;20033;-55
2022/04/16 08:50:29;;;;;;;38.30;16.83;;;;;;;-148.33;100.00;56587.81;5049082;28;20032;-56
2022/04/16 08:52:54;;;;;;;17.63;15.38;;;;;;;-148.33;100.00;56587.81;5045533;28;20518;-55
2022/04/16 08:55:20;;;;;;;20.65;15.32;;;;;;;-148.33;100.00;56587.81;5039180;28;20149;-56
2022/04/16 08:57:46;;;;;;;17.88;15.68;;;;;;;-148.33;100.00;56587.81;5052533;28;20603;-56
2022/04/16 09:00:14;;;;;;;16.70;15.20;;;;;;;-148.33;100.00;56587.81;5039724;28;20048;-57
2022/04/16 09:02:53;;;;;;;15.40;14.05;;;;;;;-148.33;100.00;56587.81;5041195;28;20038;-56
2022/04/16 09:05:19;;;;;;;16.13;14.52;;;;;;;-148.33;100.00;56587.81;5034585;28;20029;-57
2022/04/16 09:07:55;;;;;;;15.70;14.30;;;;;;;-148.33;100.00;56587.81;5044039;28;20028;-57
2022/04/16 09:10:25;;;;;;;15.73;14.10;;;;;;;-148.33;100.00;56587.81;5052632;28;20116;-57
2022/04/16 09:12:52;;;;;;;14.30;13.00;;;;;;;-148.33;100.00;56587.81;5045046;28;20030;-54
2022/04/16 09:15:18;;;;;;;15.48;12.68;;;;;;;-148.33;100.00;56587.81;5033192;28;20068;-55
2022/04/16 09:17:54;;;;;;;14.07;12.68;;;;;;;-148.33;100.00;56587.81;5045707;28;20040;-56
2022/04/16 09:20:20;;;;;;;13.90;12.70;;;;;;;-148.33;100.00;56587.81;5050901;28;20040;-56
2022/04/16 09:22:49;;;;;;;15.02;13.50;;;;;;;-148.33;100.00;56587.81;5052661;28;20023;-57
2022/04/16 09:25:18;;;;;;;13.60;12.27;;;;;;;-148.33;100.00;56587.81;5052860;28;20024;-56
2022/04/16 09:27:46;;;;;;;12.10;10.90;;;;;;;-148.33;100.00;56587.81;5053289;28;20052;-60
2022/04/16 09:30:33;;;;;;;10.52;9.57;;;;;;;-148.33;100.00;56587.81;5052879;28;20029;-55
2022/04/16 09:33:00;;;;;;;11.98;10.98;;;;;;;-148.33;100.00;56587.81;5052726;28;20702;-56
2022/04/16 09:35:29;;;;;;;11.70;10.50;;;;;;;-148.33;100.00;56587.81;5052749;28;20116;-56
2022/04/16 09:38:00;;;;;;;12.88;11.60;;;;;;;-148.33;100.00;56587.81;5052607;28;20108;-57
2022/04/16 09:40:26;;;;;;;12.70;11.60;;;;;;;-148.33;100.00;56587.81;5041686;28;20473;-56
2022/04/16 09:42:57;;;;;;;11.80;10.80;;;;;;;-148.33;100.00;56587.81;5031688;28;20022;-56
2022/04/16 09:45:22;;;;;;;12.20;11.10;;;;;;;-148.33;100.00;56587.81;5032828;28;20035;-56
2022/04/16 09:47:49;;;;;;;10.70;9.80;;;;;;;-148.33;100.00;56587.81;5043552;28;20642;-57
2022/04/16 09:50:17;;;;;;;11.75;10.68;;;;;;;-148.33;100.00;56587.81;5038628;28;20377;-56
2022/04/16 09:52:43;;;;;;;11.55;10.55;;;;;;;-148.33;100.00;56587.81;5037585;28;20421;-57
2022/04/16 09:55:10;;;;;;;10.52;9.63;;;;;;;-148.33;100.00;56587.81;5038313;28;20318;-54
2022/04/16 09:57:39;;;;;;;10.27;9.32;;;;;;;-148.33;100.00;56587.81;5045967;28;20021;-55
2022/04/16 10:00:05;;;;;;;10.00;9.00;;;;;;;-148.33;100.00;56587.81;5047698;28;20109;-55
2022/04/16 10:02:31;;;;;;;10.65;9.65;;;;;;;-148.33;100.00;56587.81;5050250;28;20106;-56
2022/04/16 10:05:00;;;;;;;9.77;8.88;;;;;;;-148.33;100.00;56587.81;5030661;28;20079;-56
2022/04/16 10:07:27;;;;;;;8.63;7.93;;;;;;;-148.33;100.00;56587.81;5030383;28;20021;-56
2022/04/16 10:09:55;;;;;;;8.63;7.82;;;;;;;-148.33;100.00;56587.81;5032932;28;20037;-57
2022/04/16 10:15:10;;;;;;;6.85;6.25;;;;;;;-148.33;100.00;56587.81;5047867;28;20047;-56
2022/04/16 10:17:35;;;;;;;6.28;5.78;;;;;;;-148.33;100.00;56587.81;5034515;28;20021;-57
2022/04/16 10:20:14;;;;;;;5.82;5.28;;;;;;;-148.33;100.00;56587.81;5030244;28;20036;-56
2022/04/16 10:22:40;;;;;;;6.53;5.97;;;;;;;-148.33;100.00;56587.81;5031487;28;20033;-55
2022/04/16 10:25:06;;;;;;;5.00;4.60;;;;;;;-148.33;100.00;56587.81;5036214;28;20040;-57
2022/04/16 10:27:37;;;;;;;3.97;3.47;;;;;;;-148.33;100.00;56587.81;5033406;28;20473;-56
2022/04/16 10:30:09;;;;;;;4.32;3.95;;;;;;;-148.33;100.00;56587.81;5039182;28;20443;-55
2022/04/16 10:32:39;;;;;;;4.63;4.30;;;;;;;-148.33;100.00;56587.81;5047755;28;20472;-57
2022/04/16 10:35:05;;;;;;;4.03;3.63;;;;;;;-148.33;100.00;56587.81;5049126;28;20039;-55
2022/04/16 10:37:40;;;;;;;4.85;4.45;;;;;;;-148.33;100.00;56587.81;5048386;28;20052;-57
2022/04/16 10:40:18;;;;;;;4.43;4.03;;;;;;;-148.33;100.00;56587.81;5048861;28;20033;-57
2022/04/16 10:42:48;;;;;;;5.38;4.72;;;;;;;-148.33;100.00;56587.81;5050665;28;20045;-56
2022/04/16 10:45:14;;;;;;;4.68;4.28;;;;;;;-148.33;100.00;56587.81;5049945;28;20564;-56
2022/04/16 10:47:41;;;;;;;4.43;4.03;;;;;;;-148.33;100.00;56587.81;5046695;28;20091;-57
2022/04/16 10:50:12;;;;;;;4.70;4.30;;;;;;;-148.33;100.00;56587.81;5034297;28;20033;-56
2022/04/16 10:52:37;;;;;;;5.07;4.00;;;;;;;-148.33;100.00;56587.81;5050830;28;20032;-57
2022/04/16 10:55:06;;;;;;;4.53;4.13;;;;;;;-148.33;100.00;56587.81;5039317;28;20025;-58
2022/04/16 10:57:33;;;;;;;9.32;5.22;;;;;;;-148.33;100.00;56587.81;5034096;28;20068;-57
2022/04/16 11:00:12;;;;;;;4.32;4.03;;;;;;;-148.33;100.00;56587.81;5035231;28;20460;-57
2022/04/16 11:02:38;;;;;;;3.85;3.55;;;;;;;-148.33;100.00;56587.81;5037212;28;20040;-58
2022/04/16 11:05:09;;;;;;;10.38;5.00;;;;;;;-148.33;100.00;56587.81;5033519;28;20071;-55